Time;durP1;ratioP1;P1;durP2;ratioP2;P2;SDS_P1;SDS_P2;PMS_P1;PMS_P2;Temp;Humidity;BMP_temperature;BMP_pressure;BME280_temperature;BME280_humidity;BME280_pressure;Samples;Min_cycle;Max_cycle;Signal;HPM_P1;HPM_P2
2024/01/07 00:01:48;;;;;;;5.43;3.57;;;;;;;18.59;38.67;101599.47;4968155;28;20081;-70
2024/01/07 00:04:15;;;;;;;5.32;3.72;;;;;;;18.57;38.64;101601.41;4968439;28;20265;-70
2024/01/07 00:06:40;;;;;;;5.50;3.90;;;;;;;18.61;38.55;101610.81;4970007;28;20031;-70
2024/01/07 00:09:05;;;;;;;5.65;4.00;;;;;;;18.60;38.56;101614.38;4970235;28;20046;-70
2024/01/07 00:11:30;;;;;;;5.70;3.90;;;;;;;18.62;38.85;101616.91;4969963;28;20125;-70
2024/01/07 00:13:56;;;;;;;5.33;3.70;;;;;;;18.51;38.62;101607.13;4970266;28;20769;-70
2024/01/07 00:16:21;;;;;;;6.00;4.33;;;;;;;18.57;38.75;101621.69;4969206;28;22340;-70
2024/01/07 00:18:46;;;;;;;5.80;3.78;;;;;;;18.56;38.42;101633.19;4969572;28;20273;-70
2024/01/07 00:21:11;;;;;;;5.50;3.60;;;;;;;18.54;38.64;101630.66;4969617;28;20058;-71
2024/01/07 00:23:37;;;;;;;5.65;3.78;;;;;;;18.47;38.39;101624.97;4969962;28;20384;-70
2024/01/07 00:26:03;;;;;;;6.93;4.20;;;;;;;18.49;38.69;101633.63;4969598;28;20031;-72
2024/01/07 00:28:28;;;;;;;6.13;3.72;;;;;;;18.38;38.53;101611.56;4969751;28;20074;-71
2024/01/07 00:30:54;;;;;;;6.00;3.95;;;;;;;18.41;38.31;101614.84;4969588;28;20464;-72
2024/01/07 00:33:19;;;;;;;5.65;3.90;;;;;;;18.36;38.65;101614.31;4969363;28;20381;-71
2024/01/07 00:35:44;;;;;;;6.32;4.13;;;;;;;18.37;38.36;101617.81;4968967;28;20033;-72
2024/01/07 00:38:09;;;;;;;5.93;4.05;;;;;;;18.37;38.21;101626.53;4968982;28;20432;-71
2024/01/07 00:40:35;;;;;;;6.32;4.28;;;;;;;18.43;38.53;101636.69;4968846;28;20050;-69
2024/01/07 00:43:00;;;;;;;5.50;3.77;;;;;;;18.30;38.02;101618.22;4968798;28;20518;-70
2024/01/07 00:45:25;;;;;;;5.78;4.28;;;;;;;18.33;38.32;101627.72;4968867;28;20284;-70
2024/01/07 00:47:52;;;;;;;6.32;4.32;;;;;;;18.37;38.34;101639.75;4968471;28;20038;-69
2024/01/07 00:50:17;;;;;;;6.57;4.20;;;;;;;18.35;38.36;101644.28;4969330;28;20056;-69
2024/01/07 00:52:43;;;;;;;5.70;3.80;;;;;;;18.25;38.37;101628.25;4969098;28;20480;-69
2024/01/07 00:55:08;;;;;;;5.60;4.10;;;;;;;18.33;38.18;101646.19;4969413;28;20284;-69
2024/01/07 00:57:33;;;;;;;5.95;4.30;;;;;;;18.22;38.44;101628.47;4969281;28;20368;-69
2024/01/07 01:00:00;;;;;;;5.63;3.78;;;;;;;18.24;38.22;101639.75;4969448;28;20042;-69
2024/01/07 01:02:25;;;;;;;5.60;3.78;;;;;;;18.25;38.33;101641.44;4967739;28;20038;-70
2024/01/07 01:04:50;;;;;;;5.57;3.70;;;;;;;18.30;38.33;101652.53;4968629;28;20035;-69
2024/01/07 01:07:16;;;;;;;7.17;4.13;;;;;;;18.21;38.14;101645.25;4968779;28;20077;-69
2024/01/07 01:09:41;;;;;;;5.97;4.00;;;;;;;18.18;38.23;101648.09;4969085;28;20319;-69
2024/01/07 01:12:06;;;;;;;5.45;3.72;;;;;;;18.22;37.90;101656.66;4968570;28;20054;-70
2024/01/07 01:14:32;;;;;;;5.75;3.80;;;;;;;18.18;38.27;101650.72;4968913;28;20034;-69
2024/01/07 01:16:57;;;;;;;5.50;3.70;;;;;;;18.18;38.32;101657.81;4968857;28;20659;-69
2024/01/07 01:19:23;;;;;;;5.30;3.42;;;;;;;18.24;38.46;101668.78;4967828;28;20035;-70
2024/01/07 01:21:49;;;;;;;5.10;3.40;;;;;;;18.24;38.04;101673.22;4967955;28;20081;-70
2024/01/07 01:24:14;;;;;;;5.70;3.80;;;;;;;18.12;38.15;101654.66;4967674;28;20030;-70
2024/01/07 01:26:39;;;;;;;5.35;3.60;;;;;;;18.21;38.16;101673.44;4967681;28;20315;-70
2024/01/07 01:29:05;;;;;;;4.68;3.40;;;;;;;18.21;38.20;101681.34;4968079;28;20487;-69
2024/01/07 01:31:30;;;;;;;5.47;3.50;;;;;;;18.12;38.36;101662.56;4967517;28;20042;-70
2024/01/07 01:33:55;;;;;;;5.15;3.25;;;;;;;18.18;38.29;101676.28;4968355;28;20031;-70
2024/01/07 01:36:21;;;;;;;5.55;3.60;;;;;;;18.11;38.37;101671.41;4968293;28;20472;-70
2024/01/07 01:38:48;;;;;;;5.38;3.83;;;;;;;18.09;38.27;101675.97;4968507;28;21268;-70
2024/01/07 01:41:13;;;;;;;4.85;3.35;;;;;;;18.20;38.26;101692.84;4967979;28;20039;-70
2024/01/07 01:43:39;;;;;;;5.30;3.42;;;;;;;18.13;37.91;101688.00;4968673;28;20080;-69
2024/01/07 01:46:04;;;;;;;5.13;3.53;;;;;;;18.11;38.40;101681.97;4967973;28;20042;-70
2024/01/07 01:48:29;;;;;;;5.30;3.88;;;;;;;18.14;37.90;101688.84;4968257;28;20292;-70
2024/01/07 01:50:57;;;;;;;5.65;3.72;;;;;;;18.15;38.11;101693.19;4968262;28;20037;-70
2024/01/07 01:53:24;;;;;;;5.95;3.95;;;;;;;18.09;38.00;101691.78;4968124;28;20118;-71
2024/01/07 01:55:49;;;;;;;5.88;4.05;;;;;;;18.13;38.09;101695.06;4968067;28;20488;-70
2024/01/07 01:58:17;;;;;;;5.75;4.07;;;;;;;18.06;38.13;101693.78;4950673;28;20041;-70
2024/01/07 02:00:44;;;;;;;5.78;4.13;;;;;;;18.10;38.12;101700.53;4966979;28;20094;-70
2024/01/07 02:03:09;;;;;;;5.15;3.50;;;;;;;18.11;38.12;101704.88;4965892;28;20432;-69
2024/01/07 02:05:34;;;;;;;5.93;4.00;;;;;;;17.99;38.11;101685.47;4965728;28;20097;-70
2024/01/07 02:08:00;;;;;;;6.10;4.05;;;;;;;18.10;37.96;101711.94;4967214;28;20369;-70
2024/01/07 02:10:25;;;;;;;5.65;4.00;;;;;;;18.09;38.02;101710.25;4967341;28;20106;-70
2024/01/07 02:12:50;;;;;;;5.78;3.95;;;;;;;18.09;37.97;101715.53;4966840;28;20051;-70
2024/01/07 02:15:16;;;;;;;5.95;4.00;;;;;;;17.95;38.17;101691.88;4966947;28;20035;-69
2024/01/07 02:17:41;;;;;;;5.85;3.90;;;;;;;17.94;38.10;101698.94;4967127;28;20089;-70
2024/01/07 02:20:07;;;;;;;6.13;4.07;;;;;;;17.99;38.25;101701.28;4967953;28;20078;-70
2024/01/07 02:22:32;;;;;;;6.00;3.92;;;;;;;17.96;37.92;101696.22;4967920;28;20031;-69
2024/01/07 02:24:57;;;;;;;5.85;3.95;;;;;;;17.97;38.22;101703.16;4968112;28;20031;-70
2024/01/07 02:27:23;;;;;;;6.10;4.22;;;;;;;17.97;38.33;101707.59;4968697;28;20436;-69
2024/01/07 02:29:48;;;;;;;6.55;4.50;;;;;;;18.03;38.21;101723.00;4971813;28;20438;-69
2024/01/07 02:32:13;;;;;;;6.65;4.50;;;;;;;17.97;38.09;101712.88;4971669;28;20031;-69
2024/01/07 02:34:39;;;;;;;5.90;4.05;;;;;;;17.92;38.30;101711.38;4971826;28;20034;-69
2024/01/07 02:37:04;;;;;;;6.03;4.05;;;;;;;17.97;37.81;101707.59;4971052;28;20023;-70
2024/01/07 02:39:29;;;;;;;6.00;3.97;;;;;;;17.98;37.79;101725.13;4971295;28;20487;-69
2024/01/07 02:41:54;;;;;;;5.63;3.80;;;;;;;17.96;37.85;101719.94;4970611;28;20027;-71
2024/01/07 02:44:20;;;;;;;5.72;4.30;;;;;;;17.90;37.88;101715.91;4971119;28;20472;-70
2024/01/07 02:46:46;;;;;;;5.95;4.05;;;;;;;17.92;37.88;101723.72;4970753;28;20070;-70
2024/01/07 02:49:12;;;;;;;6.13;3.92;;;;;;;17.97;37.83;101732.16;4970906;28;20030;-71
2024/01/07 02:51:38;;;;;;;6.65;4.25;;;;;;;17.93;37.76;101731.53;4970668;28;20567;-70
2024/01/07 02:54:03;;;;;;;5.82;3.70;;;;;;;17.96;37.96;101738.41;4970754;28;20137;-71
2024/01/07 02:56:28;;;;;;;6.40;4.35;;;;;;;17.91;37.99;101727.28;4970765;28;20085;-70
2024/01/07 02:58:53;;;;;;;6.25;4.18;;;;;;;17.94;38.01;101742.91;4970819;28;20138;-70
2024/01/07 03:01:22;;;;;;;5.43;3.85;;;;;;;17.84;37.87;101726.00;4970170;28;20034;-71
2024/01/07 03:03:47;;;;;;;7.13;4.25;;;;;;;17.92;37.91;101743.00;4969372;28;20030;-70
2024/01/07 03:06:13;;;;;;;7.00;4.30;;;;;;;17.92;38.13;101739.53;4970120;28;20080;-71
2024/01/07 03:08:38;;;;;;;6.60;4.28;;;;;;;17.91;37.79;101743.97;4969943;28;20483;-71
2024/01/07 03:11:06;;;;;;;6.63;4.13;;;;;;;17.84;38.29;101740.00;4970431;28;20129;-71
2024/01/07 03:13:32;;;;;;;6.45;4.28;;;;;;;17.85;38.18;101744.34;4970290;28;20163;-70
2024/01/07 03:15:57;;;;;;;7.53;4.40;;;;;;;17.79;38.16;101746.56;4970242;28;20039;-72
2024/01/07 03:18:23;;;;;;;6.60;4.43;;;;;;;17.88;38.00;101760.00;4970724;28;20038;-70
2024/01/07 03:20:48;;;;;;;6.63;4.88;;;;;;;17.81;37.96;101742.84;4970930;28;20117;-71
2024/01/07 03:23:13;;;;;;;7.33;4.77;;;;;;;17.82;38.02;101751.63;4970569;28;20037;-70
2024/01/07 03:25:38;;;;;;;7.00;4.45;;;;;;;17.77;38.15;101746.66;4970967;28;20263;-71
2024/01/07 03:28:04;;;;;;;7.55;4.72;;;;;;;17.79;38.22;101750.03;4970573;28;20069;-70
2024/01/07 03:30:29;;;;;;;7.97;5.25;;;;;;;17.86;38.25;101767.13;4970864;28;20030;-71
2024/01/07 03:32:55;;;;;;;7.20;5.00;;;;;;;17.77;38.18;101747.50;4970552;28;20042;-72
2024/01/07 03:35:21;;;;;;;7.95;5.38;;;;;;;17.74;37.74;101746.84;4985523;28;20322;-70
2024/01/07 03:37:47;;;;;;;7.32;5.38;;;;;;;17.83;37.81;101763.84;4970270;28;20035;-70
2024/01/07 03:40:12;;;;;;;7.35;5.05;;;;;;;17.71;37.94;101749.69;4970610;28;20077;-71
2024/01/07 03:42:37;;;;;;;9.45;5.32;;;;;;;17.81;38.20;101766.59;4970612;28;20038;-71
2024/01/07 03:45:03;;;;;;;8.85;5.88;;;;;;;17.81;38.09;101773.66;4970183;28;20035;-70
2024/01/07 03:47:30;;;;;;;7.82;4.85;;;;;;;17.82;38.07;101778.84;4970418;28;20034;-70
2024/01/07 03:49:55;;;;;;;8.93;5.45;;;;;;;17.76;38.04;101768.69;4970408;28;20038;-70
2024/01/07 03:52:20;;;;;;;8.40;5.38;;;;;;;17.71;37.80;101765.50;4969846;28;20034;-70
2024/01/07 03:54:45;;;;;;;8.40;5.25;;;;;;;17.77;37.99;101778.28;4969597;28;20030;-70
2024/01/07 03:57:11;;;;;;;8.20;5.20;;;;;;;17.74;37.85;101775.84;4969429;28;20027;-70
2024/01/07 03:59:36;;;;;;;8.05;5.43;;;;;;;17.77;38.02;101787.03;4970026;28;20280;-70
2024/01/07 04:02:02;;;;;;;7.40;5.38;;;;;;;17.72;37.93;101781.22;4968740;28;20030;-70
2024/01/07 04:04:27;;;;;;;7.40;5.07;;;;;;;17.76;37.80;101787.97;4968975;28;20054;-70
2024/01/07 04:06:52;;;;;;;7.03;4.82;;;;;;;17.76;38.26;101801.16;4970204;28;20030;-71
2024/01/07 04:09:17;;;;;;;7.53;4.75;;;;;;;17.73;38.22;101796.06;4970275;28;20147;-70
2024/01/07 04:11:43;;;;;;;7.07;4.80;;;;;;;17.70;38.14;101787.53;4969870;28;20089;-71
2024/01/07 04:14:09;;;;;;;7.68;5.18;;;;;;;17.63;37.84;101787.09;4970163;28;20311;-70
2024/01/07 04:16:35;;;;;;;7.85;5.22;;;;;;;17.71;37.80;101797.13;4970127;28;20038;-70
2024/01/07 04:19:00;;;;;;;6.95;4.93;;;;;;;17.69;37.81;101799.00;4970287;28;20035;-72
2024/01/07 04:21:25;;;;;;;7.70;5.00;;;;;;;17.68;37.69;101797.34;4970089;28;20045;-70
2024/01/07 04:23:51;;;;;;;7.40;5.30;;;;;;;17.66;37.53;101802.72;4969734;28;20460;-70
2024/01/07 04:26:16;;;;;;;7.90;5.05;;;;;;;17.58;38.07;101792.66;4969989;28;20066;-70
2024/01/07 04:28:42;;;;;;;6.80;4.75;;;;;;;17.68;37.93;101810.53;4969209;28;20046;-70
2024/01/07 04:31:08;;;;;;;6.88;4.85;;;;;;;17.63;37.90;101807.34;4969615;28;20067;-71
2024/01/07 04:33:33;;;;;;;7.53;4.72;;;;;;;17.59;37.73;101797.00;4969610;28;20073;-71
2024/01/07 04:36:00;;;;;;;7.95;5.10;;;;;;;17.67;38.01;101819.38;4969937;28;20045;-70
2024/01/07 04:38:25;;;;;;;7.60;4.85;;;;;;;17.61;37.85;101823.25;4969658;28;20031;-71
2024/01/07 04:40:51;;;;;;;7.43;4.50;;;;;;;17.65;38.06;101824.72;4969369;28;20121;-71
2024/01/07 04:43:17;;;;;;;7.30;5.00;;;;;;;17.60;38.10;101811.00;4969500;28;20030;-72
2024/01/07 04:45:43;;;;;;;7.07;4.60;;;;;;;17.65;37.97;101831.81;4969156;28;20055;-71
2024/01/07 04:48:08;;;;;;;7.07;4.57;;;;;;;17.62;38.16;101827.56;4969575;28;20046;-69
2024/01/07 04:50:33;;;;;;;6.97;4.95;;;;;;;17.66;37.94;101836.97;4968040;28;20487;-69
2024/01/07 04:52:59;;;;;;;6.43;4.18;;;;;;;17.40;37.95;101801.72;4968534;28;20498;-70
2024/01/07 04:55:24;;;;;;;7.53;4.72;;;;;;;17.54;38.25;101820.13;4968856;28;20045;-69
2024/01/07 04:57:49;;;;;;;6.35;4.13;;;;;;;17.55;38.09;101831.53;4968039;28;20049;-70
2024/01/07 05:00:15;;;;;;;6.50;4.47;;;;;;;17.55;37.93;101837.66;4968603;28;20133;-70
2024/01/07 05:02:40;;;;;;;6.45;4.63;;;;;;;17.52;37.85;101832.56;4967194;28;20522;-70
2024/01/07 05:05:08;;;;;;;7.80;4.70;;;;;;;17.52;37.81;101831.72;4968710;28;20049;-69
2024/01/07 05:07:33;;;;;;;7.07;4.55;;;;;;;17.52;37.68;101829.94;4968995;28;20268;-69
2024/01/07 05:09:58;;;;;;;5.80;4.27;;;;;;;17.53;37.69;101831.63;4968701;28;20039;-70
2024/01/07 05:12:25;;;;;;;6.75;4.47;;;;;;;17.59;38.05;101847.06;4969034;28;20272;-69
2024/01/07 05:14:50;;;;;;;7.15;4.90;;;;;;;17.57;37.71;101851.56;4969035;28;20164;-70
2024/01/07 05:17:16;;;;;;;6.50;4.40;;;;;;;17.55;37.82;101845.56;4968580;28;20147;-69
2024/01/07 05:19:41;;;;;;;6.95;4.57;;;;;;;17.53;37.83;101849.22;4968604;28;20027;-70
2024/01/07 05:22:06;;;;;;;7.25;4.68;;;;;;;17.59;37.74;101859.38;4968688;28;20033;-69
2024/01/07 05:24:32;;;;;;;6.97;4.30;;;;;;;17.57;37.88;101856.84;4968459;28;20027;-70
2024/01/07 05:26:57;;;;;;;6.00;3.90;;;;;;;17.57;37.73;101869.19;4968689;28;20042;-69
2024/01/07 05:29:22;;;;;;;5.95;3.88;;;;;;;17.55;37.93;101866.66;4968429;28;20523;-69
2024/01/07 05:31:47;;;;;;;6.60;4.00;;;;;;;17.56;37.72;101868.34;4968506;28;20031;-69
2024/01/07 05:34:13;;;;;;;6.25;4.28;;;;;;;17.53;37.96;101868.53;4968688;28;20039;-70
2024/01/07 05:36:38;;;;;;;5.93;3.67;;;;;;;17.48;37.94;101864.47;4968500;28;20065;-69
2024/01/07 05:39:04;;;;;;;6.00;3.77;;;;;;;17.56;37.94;101880.66;4968527;28;20264;-69
2024/01/07 05:41:29;;;;;;;6.28;3.40;;;;;;;17.47;37.93;101871.56;4967893;28;20269;-69
2024/01/07 05:43:54;;;;;;;6.28;3.72;;;;;;;17.49;37.77;101880.19;4968278;28;20030;-70
2024/01/07 05:46:20;;;;;;;5.30;3.10;;;;;;;17.54;37.96;101887.81;4968355;28;20055;-69
2024/01/07 05:48:47;;;;;;;4.70;2.88;;;;;;;17.55;38.36;101885.09;4967756;28;20071;-69
2024/01/07 05:51:13;;;;;;;4.80;2.78;;;;;;;17.59;38.31;101889.25;4968473;28;20035;-70
2024/01/07 05:53:39;;;;;;;5.22;3.03;;;;;;;17.72;38.62;101905.13;4967500;28;20035;-69
2024/01/07 05:56:05;;;;;;;5.30;2.97;;;;;;;17.69;38.63;101888.66;4967894;28;20396;-69
2024/01/07 05:58:30;;;;;;;4.45;2.47;;;;;;;17.82;38.45;101901.94;4968026;28;20031;-70
2024/01/07 06:00:56;;;;;;;4.55;2.42;;;;;;;17.77;38.73;101897.78;4968115;28;20548;-70
2024/01/07 06:03:21;;;;;;;4.70;2.55;;;;;;;17.87;38.68;101907.75;4966356;28;20456;-69
2024/01/07 06:05:47;;;;;;;4.65;2.72;;;;;;;17.92;38.32;101908.34;4968481;28;20105;-69
2024/01/07 06:08:12;;;;;;;4.75;2.47;;;;;;;17.94;38.38;101915.22;4968045;28;20436;-69
2024/01/07 06:10:38;;;;;;;4.95;2.53;;;;;;;17.97;38.37;101921.22;4967871;28;20412;-69
2024/01/07 06:13:04;;;;;;;4.43;2.47;;;;;;;17.92;38.17;101908.34;4968191;28;20038;-69
2024/01/07 06:15:29;;;;;;;4.43;2.53;;;;;;;17.95;38.39;101913.41;4968254;28;20129;-70
2024/01/07 06:17:55;;;;;;;4.50;2.38;;;;;;;18.04;38.48;101930.44;4968022;28;20486;-70
2024/01/07 06:20:20;;;;;;;4.35;2.30;;;;;;;17.97;38.40;101922.06;4967936;28;20040;-69
2024/01/07 06:22:46;;;;;;;4.10;2.40;;;;;;;18.08;38.39;101945.97;4967366;28;20035;-69
2024/01/07 06:25:11;;;;;;;4.53;2.30;;;;;;;17.99;38.45;101925.47;4967116;28;20026;-69
2024/01/07 06:27:38;;;;;;;4.47;2.40;;;;;;;18.09;38.42;101945.03;4967341;28;20464;-70
2024/01/07 06:30:05;;;;;;;4.18;2.45;;;;;;;17.84;38.31;101903.50;4981687;28;20396;-70
2024/01/07 06:32:32;;;;;;;4.40;2.40;;;;;;;18.03;38.30;101940.13;4966377;28;20030;-70
2024/01/07 06:34:57;;;;;;;4.25;2.13;;;;;;;18.12;38.39;101951.91;4967052;28;20553;-69
2024/01/07 06:37:22;;;;;;;3.58;2.00;;;;;;;18.16;38.10;101961.31;4967576;28;20039;-71
2024/01/07 06:39:48;;;;;;;4.18;2.20;;;;;;;18.08;38.25;101953.03;4968214;28;20175;-71
2024/01/07 06:42:13;;;;;;;4.18;2.33;;;;;;;18.17;38.16;101972.72;4967801;28;20046;-71
2024/01/07 06:44:38;;;;;;;4.00;2.10;;;;;;;18.12;38.23;101963.31;4967837;28;20022;-71
2024/01/07 06:47:03;;;;;;;4.17;2.17;;;;;;;18.16;37.87;101963.13;4967720;28;20347;-70
2024/01/07 06:49:29;;;;;;;3.58;2.15;;;;;;;18.12;38.13;101965.94;4967969;28;20367;-70
2024/01/07 06:51:54;;;;;;;3.72;1.92;;;;;;;18.24;38.04;101987.22;4967317;28;20462;-70
2024/01/07 06:54:19;;;;;;;3.77;2.20;;;;;;;18.24;38.14;101988.03;4966969;28;20129;-71
2024/01/07 06:56:44;;;;;;;4.50;2.20;;;;;;;18.24;38.35;101988.03;4966670;28;20287;-70
2024/01/07 06:59:10;;;;;;;4.13;2.20;;;;;;;18.25;38.10;101997.66;4966921;28;20265;-70
2024/01/07 07:01:36;;;;;;;3.65;1.85;;;;;;;18.22;38.46;101984.66;4966829;28;20038;-70
2024/01/07 07:04:01;;;;;;;4.47;2.00;;;;;;;18.26;38.29;101999.38;4965669;28;20034;-71
2024/01/07 07:06:26;;;;;;;4.00;2.03;;;;;;;18.18;38.46;101990.25;4967366;28;20081;-71
2024/01/07 07:08:52;;;;;;;3.95;1.88;;;;;;;18.19;38.32;101984.03;4967481;28;20070;-70
2024/01/07 07:11:17;;;;;;;3.65;1.90;;;;;;;18.21;38.21;101996.16;4967791;28;20034;-71
2024/01/07 07:13:42;;;;;;;4.28;1.92;;;;;;;18.26;38.30;102007.28;4968264;28;20038;-70
2024/01/07 07:16:07;;;;;;;3.73;1.93;;;;;;;18.15;38.32;101993.06;4971130;28;20030;-70
2024/01/07 07:18:33;;;;;;;3.75;2.03;;;;;;;18.26;38.44;102009.06;4970970;28;20726;-70
2024/01/07 07:20:58;;;;;;;3.70;2.00;;;;;;;18.19;38.06;101994.56;4970846;28;20038;-70
2024/01/07 07:23:24;;;;;;;4.00;2.00;;;;;;;18.20;38.50;102004.16;4970096;28;20034;-70
2024/01/07 07:25:49;;;;;;;3.78;1.90;;;;;;;18.19;38.13;102008.59;4970208;28;20034;-70
2024/01/07 07:28:16;;;;;;;4.07;2.10;;;;;;;18.28;38.08;102025.66;4970175;28;20496;-70
2024/01/07 07:30:41;;;;;;;3.83;2.03;;;;;;;18.29;38.11;102025.56;4969999;28;20034;-70
2024/01/07 07:33:06;;;;;;;5.37;2.10;;;;;;;18.24;37.82;102019.72;4969978;28;20027;-69
2024/01/07 07:35:31;;;;;;;3.47;2.00;;;;;;;18.30;37.97;102037.81;4970279;28;20610;-70
2024/01/07 07:37:57;;;;;;;4.63;2.50;;;;;;;18.19;38.31;102026.25;4971262;28;20074;-70
2024/01/07 07:40:22;;;;;;;4.30;1.90;;;;;;;18.29;37.94;102045.81;4970509;28;20038;-70
2024/01/07 07:42:48;;;;;;;4.05;2.30;;;;;;;18.19;38.20;102029.72;4970604;28;20806;-69
2024/01/07 07:45:14;;;;;;;4.40;2.03;;;;;;;18.21;38.17;102040.19;4971013;28;20043;-71
2024/01/07 07:47:44;;;;;;;3.15;1.88;;;;;;;18.28;38.21;102067.88;4971574;28;20114;-70
2024/01/07 07:50:10;;;;;;;4.40;2.03;;;;;;;18.30;38.23;102066.00;4971332;28;20034;-70
2024/01/07 07:52:35;;;;;;;3.55;2.00;;;;;;;18.27;37.98;102074.94;4970170;28;20037;-71
2024/01/07 07:55:01;;;;;;;3.80;1.90;;;;;;;18.30;38.30;102077.38;4970758;28;20452;-70
2024/01/07 07:57:26;;;;;;;3.85;2.00;;;;;;;18.31;38.29;102086.19;4970340;28;20031;-71
2024/01/07 07:59:51;;;;;;;3.75;2.10;;;;;;;18.24;38.24;102076.94;4970026;28;20042;-69
2024/01/07 08:02:17;;;;;;;3.83;1.98;;;;;;;18.30;37.97;102089.75;4969940;28;20041;-70
2024/01/07 08:04:43;;;;;;;4.38;1.80;;;;;;;18.30;38.14;102093.22;4970449;28;20041;-69
2024/01/07 08:07:09;;;;;;;4.15;1.90;;;;;;;18.30;37.91;102090.59;4971062;28;20045;-70
2024/01/07 08:09:37;;;;;;;4.18;2.05;;;;;;;18.31;38.10;102094.94;4970979;28;20467;-69
2024/01/07 08:12:04;;;;;;;3.40;1.80;;;;;;;18.31;38.33;102086.19;4969402;28;20042;-70
2024/01/07 08:14:30;;;;;;;3.85;1.90;;;;;;;18.32;38.12;102090.50;4969056;28;20402;-69
2024/01/07 08:16:55;;;;;;;3.92;2.13;;;;;;;18.23;38.18;102084.00;4968543;28;20110;-70
2024/01/07 08:19:20;;;;;;;4.10;2.10;;;;;;;18.30;38.18;102097.66;4967909;28;20074;-70
2024/01/07 08:21:46;;;;;;;4.00;2.30;;;;;;;18.32;37.77;102101.03;4967677;28;20035;-71
2024/01/07 08:24:11;;;;;;;3.70;1.77;;;;;;;18.26;38.05;102093.50;4968643;28;20388;-70
2024/01/07 08:26:36;;;;;;;3.83;2.20;;;;;;;18.33;37.89;102109.84;4967663;28;20028;-70
2024/01/07 08:29:02;;;;;;;3.80;1.98;;;;;;;18.31;38.03;102120.47;4968492;28;20097;-70
2024/01/07 08:31:27;;;;;;;4.55;2.55;;;;;;;18.33;37.84;102125.66;4969026;28;20178;-71
2024/01/07 08:33:52;;;;;;;3.90;2.00;;;;;;;18.30;38.11;102122.25;4968827;28;20109;-70
2024/01/07 08:36:18;;;;;;;4.30;2.20;;;;;;;18.23;37.74;102114.81;4969344;28;20265;-69
2024/01/07 08:38:43;;;;;;;3.70;1.80;;;;;;;18.26;37.65;102120.75;4969216;28;20857;-70
2024/01/07 08:41:09;;;;;;;4.28;2.40;;;;;;;18.31;37.41;102136.31;4969838;28;20031;-71
2024/01/07 08:43:34;;;;;;;4.35;2.50;;;;;;;18.27;36.83;102129.50;4969412;28;20041;-71
2024/01/07 08:45:59;;;;;;;4.50;2.40;;;;;;;18.18;36.93;102119.53;4968794;28;20495;-71
2024/01/07 08:48:25;;;;;;;4.50;2.53;;;;;;;18.25;36.86;102140.16;4969187;28;20139;-70
2024/01/07 08:50:50;;;;;;;4.28;2.28;;;;;;;18.29;36.87;102146.09;4969314;28;21009;-72
2024/01/07 08:53:16;;;;;;;4.80;2.42;;;;;;;18.31;37.31;102160.91;4968383;28;20035;-72
2024/01/07 08:55:41;;;;;;;4.03;2.10;;;;;;;18.31;37.61;102142.44;4968545;28;20034;-70
2024/01/07 08:58:06;;;;;;;4.60;2.35;;;;;;;18.26;37.64;102135.72;4967974;28;20035;-70
2024/01/07 09:00:32;;;;;;;4.15;1.85;;;;;;;18.34;37.76;102156.38;4968333;28;20039;-71
2024/01/07 09:02:57;;;;;;;4.22;2.13;;;;;;;18.25;37.81;102145.44;4966175;28;20721;-71
2024/01/07 09:05:24;;;;;;;3.80;2.00;;;;;;;18.27;37.93;102148.00;4968465;28;20039;-71
2024/01/07 09:07:49;;;;;;;4.05;1.85;;;;;;;18.33;37.99;102160.81;4968247;28;20551;-70
2024/01/07 09:10:14;;;;;;;3.85;1.90;;;;;;;18.28;37.88;102154.97;4968690;28;20168;-69
2024/01/07 09:12:40;;;;;;;4.50;1.77;;;;;;;18.28;38.10;102153.16;4968482;28;20038;-68
2024/01/07 09:15:09;;;;;;;3.63;1.80;;;;;;;18.40;38.25;102175.31;4968807;28;20118;-69
2024/01/07 09:17:36;;;;;;;3.92;1.90;;;;;;;18.30;38.13;102163.63;4968651;28;20468;-69
2024/01/07 09:20:04;;;;;;;4.78;2.20;;;;;;;18.41;38.08;102192.84;4968364;28;20397;-70
2024/01/07 09:22:30;;;;;;;3.88;2.00;;;;;;;18.32;38.27;102174.94;4968561;28;20373;-69
2024/01/07 09:24:56;;;;;;;3.53;1.83;;;;;;;18.35;38.37;102182.66;4968634;28;20046;-70
2024/01/07 09:27:21;;;;;;;4.15;1.95;;;;;;;18.40;38.36;102191.16;4968099;28;20035;-68
2024/01/07 09:29:46;;;;;;;3.63;2.05;;;;;;;18.39;38.26;102192.13;4968491;28;20141;-70
2024/01/07 09:32:12;;;;;;;3.67;1.77;;;;;;;18.33;38.33;102189.00;4967635;28;20027;-69
2024/01/07 09:34:37;;;;;;;3.63;1.80;;;;;;;18.34;38.42;102194.19;4968378;28;20443;-68
2024/01/07 09:37:02;;;;;;;4.20;1.83;;;;;;;18.41;38.06;102206.06;4967921;28;20256;-70
2024/01/07 09:39:28;;;;;;;4.25;2.20;;;;;;;18.36;38.16;102202.84;4967197;28;20347;-69
2024/01/07 09:41:53;;;;;;;3.60;1.90;;;;;;;18.39;38.47;102210.59;4964624;28;20531;-70
2024/01/07 09:44:19;;;;;;;3.85;1.88;;;;;;;18.32;38.23;102209.25;4967673;28;20031;-70
2024/01/07 09:46:49;;;;;;;4.18;2.15;;;;;;;18.42;38.28;102223.59;4967828;28;20102;-71
2024/01/07 09:49:14;;;;;;;3.97;1.80;;;;;;;18.41;38.55;102229.81;4967226;28;20027;-71
2024/01/07 09:51:43;;;;;;;3.55;1.83;;;;;;;18.43;38.57;102233.19;4967475;28;20038;-71
2024/01/07 09:54:11;;;;;;;4.38;1.83;;;;;;;18.45;38.51;102231.34;4965995;28;20510;-71
2024/01/07 09:56:42;;;;;;;5.50;2.15;;;;;;;18.44;38.25;102242.81;4967107;28;20080;-71
2024/01/07 09:59:08;;;;;;;3.88;1.80;;;;;;;18.43;38.18;102243.75;4966491;28;20098;-71
2024/01/07 10:01:35;;;;;;;3.83;1.88;;;;;;;18.36;38.31;102237.16;4968211;28;20035;-71
2024/01/07 10:04:00;;;;;;;4.25;1.90;;;;;;;18.43;38.23;102251.69;4966430;28;20077;-71
2024/01/07 10:06:26;;;;;;;4.30;1.80;;;;;;;18.44;37.92;102258.66;4967490;28;20098;-71
2024/01/07 10:08:51;;;;;;;4.72;1.90;;;;;;;18.43;37.50;102253.47;4968021;28;20042;-71
2024/01/07 10:11:16;;;;;;;3.92;1.98;;;;;;;18.31;37.89;102234.81;4968064;28;20066;-70
2024/01/07 10:13:47;;;;;;;4.13;2.10;;;;;;;18.43;38.00;102267.50;4967785;28;20372;-72
2024/01/07 10:16:13;;;;;;;3.85;1.92;;;;;;;18.39;38.13;102260.75;4967736;28;20034;-71
2024/01/07 10:18:38;;;;;;;4.82;1.98;;;;;;;18.43;37.94;102269.31;4966811;28;21103;-70
2024/01/07 10:21:06;;;;;;;4.33;1.97;;;;;;;18.33;37.98;102258.47;4967687;28;20369;-71
2024/01/07 10:23:31;;;;;;;4.20;1.90;;;;;;;18.39;38.13;102265.16;4966707;28;20260;-72
2024/01/07 10:25:58;;;;;;;4.78;2.15;;;;;;;18.41;38.11;102277.31;4966495;28;20097;-72
2024/01/07 10:28:23;;;;;;;4.95;2.28;;;;;;;18.41;37.98;102272.03;4966991;28;20043;-72
2024/01/07 10:30:50;;;;;;;3.08;1.70;;;;;;;18.36;37.87;102266.19;4966907;28;20538;-74
2024/01/07 10:33:18;;;;;;;3.40;1.73;;;;;;;18.32;37.54;102262.03;4965610;28;20089;-73
2024/01/07 10:35:51;;;;;;;3.20;1.58;;;;;;;18.42;37.57;102281.66;4966961;28;20042;-74
2024/01/07 10:38:16;;;;;;;4.13;1.80;;;;;;;18.33;37.54;102263.75;4966410;28;20049;-74
2024/01/07 10:40:45;;;;;;;3.85;1.73;;;;;;;18.44;37.89;102278.94;4966063;28;20034;-73
2024/01/07 10:43:11;;;;;;;3.65;1.75;;;;;;;18.35;37.96;102261.84;4967374;28;20117;-73
2024/01/07 10:45:36;;;;;;;3.60;2.00;;;;;;;18.45;37.70;102273.56;4966603;28;20051;-73
2024/01/07 10:48:07;;;;;;;4.10;1.73;;;;;;;18.36;37.84;102258.28;4966821;28;20030;-73
2024/01/07 10:50:32;;;;;;;3.20;1.58;;;;;;;18.43;37.82;102274.59;4970899;28;20033;-73
2024/01/07 10:53:04;;;;;;;3.95;1.70;;;;;;;18.36;38.17;102262.69;4970606;28;20039;-74
2024/01/07 10:55:33;;;;;;;3.60;1.65;;;;;;;18.37;37.94;102264.41;4971441;28;20030;-75
2024/01/07 10:58:00;;;;;;;3.83;1.85;;;;;;;18.43;38.12;102275.44;4971402;28;20061;-74
2024/01/07 11:00:25;;;;;;;3.75;1.83;;;;;;;18.38;37.80;102274.88;4971041;28;20034;-76
2024/01/07 11:02:50;;;;;;;4.20;1.80;;;;;;;18.46;37.50;102285.81;4968600;28;20041;-76
2024/01/07 11:05:33;;;;;;;3.60;1.80;;;;;;;18.40;37.63;102272.97;4971095;28;20027;-75
2024/01/07 11:08:11;;;;;;;3.08;1.70;;;;;;;18.34;37.71;102259.31;4970122;28;20082;-74
2024/01/07 11:10:49;;;;;;;3.90;2.13;;;;;;;18.36;37.74;102271.47;4971078;28;20081;-74
2024/01/07 11:13:38;;;;;;;4.47;2.00;;;;;;;18.45;38.04;102283.25;4971008;28;20043;-73
2024/01/07 11:16:04;;;;;;;4.18;1.90;;;;;;;18.44;37.82;102285.06;4971106;28;20464;-76
2024/01/07 11:18:33;;;;;;;7.10;1.75;;;;;;;18.43;37.82;102279.88;4971096;28;20038;-74